Time;durP1;ratioP1;P1;durP2;ratioP2;P2;SDS_P1;SDS_P2;PMS_P1;PMS_P2;Temp;Humidity;BMP_temperature;BMP_pressure;BME280_temperature;BME280_humidity;BME280_pressure;Samples;Min_cycle;Max_cycle;Signal;HPM_P1;HPM_P2
2021/08/29 00:00:15;;;;;;;16.75;13.90;;;;;;;24.18;72.52;99363.56;4968771;28;20402;-24
2021/08/29 00:02:41;;;;;;;17.35;15.02;;;;;;;23.92;74.11;99333.69;4968901;28;20034;-24
2021/08/29 00:05:06;;;;;;;18.42;15.32;;;;;;;23.81;75.01;99357.75;4969176;28;20035;-24
2021/08/29 00:07:32;;;;;;;17.25;14.88;;;;;;;23.83;74.10;99337.25;4969209;28;20093;-23
2021/08/29 00:09:57;;;;;;;17.05;15.25;;;;;;;24.33;71.65;99348.59;4968862;28;20118;-23
2021/08/29 00:12:23;;;;;;;18.23;15.35;;;;;;;24.28;72.43;99357.75;4968827;28;20027;-24
2021/08/29 00:14:48;;;;;;;18.27;15.55;;;;;;;23.97;73.70;99353.38;4969150;28;20027;-24
2021/08/29 00:17:14;;;;;;;18.73;15.32;;;;;;;24.18;69.68;99358.13;4969032;28;20031;-23
2021/08/29 00:19:39;;;;;;;16.77;14.32;;;;;;;24.24;66.47;99349.44;4968722;28;20042;-23
2021/08/29 00:22:05;;;;;;;18.17;15.43;;;;;;;24.24;68.12;99348.63;4968521;28;20830;-23
2021/08/29 00:24:30;;;;;;;18.98;15.23;;;;;;;24.10;72.03;99343.41;4968534;28;20154;-24
2021/08/29 00:26:56;;;;;;;18.60;15.55;;;;;;;23.90;72.96;99325.84;4968528;28;20062;-24
2021/08/29 00:29:21;;;;;;;20.20;18.00;;;;;;;24.26;72.28;99343.66;4968725;28;20039;-24
2021/08/29 00:31:47;;;;;;;20.02;17.38;;;;;;;23.93;73.85;99347.00;4968645;28;20050;-25
2021/08/29 00:34:12;;;;;;;19.77;16.95;;;;;;;23.74;74.61;99332.91;4967242;28;20041;-24
2021/08/29 00:36:38;;;;;;;22.02;17.65;;;;;;;23.45;75.85;99342.59;4968561;28;20035;-24
2021/08/29 00:39:03;;;;;;;20.67;15.63;;;;;;;23.39;76.35;99341.16;4967471;28;20050;-23
2021/08/29 00:41:29;;;;;;;17.33;14.82;;;;;;;23.20;76.30;99312.38;4968838;28;20043;-24
2021/08/29 00:43:55;;;;;;;16.67;13.90;;;;;;;23.14;77.12;99324.53;4971370;28;20022;-24
2021/08/29 00:46:21;;;;;;;17.83;15.25;;;;;;;23.34;76.86;99325.00;4971959;28;20038;-24
2021/08/29 00:48:49;;;;;;;19.33;15.82;;;;;;;23.30;76.19;99319.41;4972590;28;20398;-23
2021/08/29 00:51:15;;;;;;;19.70;16.38;;;;;;;23.59;75.16;99321.44;4970720;28;20117;-24
2021/08/29 00:53:51;;;;;;;20.85;14.90;;;;;;;23.92;69.74;99307.25;4972098;28;20450;-24
2021/08/29 00:56:17;;;;;;;16.25;13.10;;;;;;;24.23;68.93;99319.78;4972270;28;20039;-23
2021/08/29 00:58:43;;;;;;;15.32;12.02;;;;;;;24.11;69.47;99297.88;4971886;28;20022;-24
2021/08/29 01:01:10;;;;;;;17.48;12.95;;;;;;;24.10;69.70;99313.44;4971808;28;20041;-24
2021/08/29 01:03:35;;;;;;;14.77;12.68;;;;;;;23.93;69.82;99297.97;4971976;28;20037;-24
2021/08/29 01:06:12;;;;;;;17.20;13.95;;;;;;;24.16;69.91;99308.59;4970784;28;20030;-23
2021/08/29 01:08:39;;;;;;;19.23;15.15;;;;;;;24.35;69.20;99308.97;4972282;28;20023;-24
2021/08/29 01:11:07;;;;;;;17.85;14.90;;;;;;;24.17;69.91;99307.47;4971806;28;20513;-24
2021/08/29 01:13:32;;;;;;;;;;;;;;;24.38;70.19;99308.34;4970910;28;20569;-24
2021/08/29 01:16:03;;;;;;;18.45;14.98;;;;;;;24.46;69.82;99309.41;4971685;28;19914;-24
2021/08/29 01:18:28;;;;;;;19.30;14.85;;;;;;;24.35;68.72;99308.97;4954691;28;20039;-24
2021/08/29 01:21:11;;;;;;;18.73;15.90;;;;;;;24.38;70.04;99308.34;4954253;28;20046;-24
2021/08/29 01:23:39;;;;;;;19.42;16.35;;;;;;;24.00;71.63;99295.53;4970185;28;20039;-24
2021/08/29 01:26:18;;;;;;;19.60;16.25;;;;;;;24.04;71.41;99304.66;4953963;28;20058;-23
2021/08/29 01:28:54;;;;;;;17.75;15.85;;;;;;;24.06;71.79;99310.56;4954822;28;20149;-24
2021/08/29 01:31:20;;;;;;;16.70;14.80;;;;;;;24.13;70.34;99284.75;4970057;28;20035;-24
2021/08/29 01:33:45;;;;;;;17.05;15.00;;;;;;;23.91;71.23;99274.94;4954130;28;20023;-24
2021/08/29 01:36:12;;;;;;;19.45;14.68;;;;;;;23.99;72.47;99293.16;4970084;28;20034;-24
2021/08/29 01:38:38;;;;;;;21.70;14.88;;;;;;;24.24;70.19;99294.16;4954127;28;20031;-24
2021/08/29 01:41:03;;;;;;;16.50;14.70;;;;;;;24.21;70.60;99287.44;4954320;28;20038;-23
2021/08/29 01:43:29;;;;;;;17.67;15.23;;;;;;;24.03;71.37;99285.94;4953852;28;20027;-24
2021/08/29 01:45:54;;;;;;;17.52;15.15;;;;;;;23.91;71.70;99283.91;4971536;28;20027;-24
2021/08/29 01:48:19;;;;;;;19.45;15.65;;;;;;;23.78;72.40;99285.72;4970038;28;20050;-24
2021/08/29 01:50:45;;;;;;;18.90;15.48;;;;;;;23.87;72.72;99293.84;4953855;28;20461;-24
2021/08/29 01:53:11;;;;;;;17.67;15.77;;;;;;;23.76;72.22;99292.56;4953679;28;20093;-24
2021/08/29 01:55:36;;;;;;;19.05;15.15;;;;;;;23.71;72.66;99290.81;4970661;28;20039;-24
2021/08/29 01:58:02;;;;;;;19.85;15.52;;;;;;;23.82;72.05;99297.53;4970981;28;20387;-24
2021/08/29 02:00:27;;;;;;;17.10;14.93;;;;;;;23.96;71.30;99280.97;4970890;28;20046;-24
2021/08/29 02:02:53;;;;;;;19.17;15.57;;;;;;;23.77;72.62;99294.19;4969877;28;20490;-23
2021/08/29 02:05:18;;;;;;;21.67;15.60;;;;;;;23.77;72.10;99286.81;4971084;28;20031;-24
2021/08/29 02:07:47;;;;;;;17.35;14.48;;;;;;;23.80;71.38;99282.66;4969683;28;20495;-24
2021/08/29 02:10:13;;;;;;;17.15;15.23;;;;;;;24.04;70.82;99293.75;4953402;28;20041;-24
2021/08/29 02:13:01;;;;;;;18.30;15.10;;;;;;;24.17;70.05;99291.13;4970742;28;20065;-24
2021/08/29 02:15:41;;;;;;;19.65;14.60;;;;;;;23.81;71.19;99274.16;4969752;28;20407;-23
2021/08/29 02:18:07;;;;;;;19.63;15.38;;;;;;;23.94;71.94;99298.78;4969610;28;20143;-23
2021/08/29 02:20:33;;;;;;;19.17;15.20;;;;;;;24.11;71.08;99287.00;4969727;28;20133;-24
2021/08/29 02:22:58;;;;;;;17.13;14.95;;;;;;;24.04;69.47;99287.50;4953294;28;20045;-24
2021/08/29 02:25:24;;;;;;;18.92;15.93;;;;;;;24.20;70.46;99301.38;4953118;28;20494;-24
2021/08/29 02:27:49;;;;;;;20.80;17.55;;;;;;;24.36;69.95;99294.25;4969155;28;20097;-24
2021/08/29 02:30:15;;;;;;;24.83;17.55;;;;;;;24.25;69.98;99279.38;4969025;28;20034;-24
2021/08/29 02:32:41;;;;;;;19.95;16.60;;;;;;;24.43;68.19;99280.88;4968995;28;20027;-24
2021/08/29 02:35:07;;;;;;;17.88;14.10;;;;;;;24.52;69.02;99280.03;4970520;28;20031;-24
2021/08/29 02:37:33;;;;;;;21.70;15.23;;;;;;;24.32;69.37;99270.72;4970373;28;20093;-24
2021/08/29 02:39:58;;;;;;;17.73;15.10;;;;;;;24.59;68.10;99285.78;4952835;28;20038;-24
2021/08/29 02:42:26;;;;;;;17.75;14.77;;;;;;;24.73;68.04;99291.78;4968599;28;20034;-24
2021/08/29 02:44:51;;;;;;;19.60;14.80;;;;;;;24.68;67.84;99289.22;4953096;28;20502;-23
2021/08/29 02:47:17;;;;;;;18.23;14.25;;;;;;;24.93;66.70;99278.44;4952714;28;20035;-24
2021/08/29 02:49:42;;;;;;;16.33;13.60;;;;;;;24.96;65.96;99261.44;4968813;28;20475;-24
2021/08/29 02:52:08;;;;;;;20.48;15.30;;;;;;;24.85;67.08;99286.38;4968649;28;20038;-24
2021/08/29 02:54:35;;;;;;;18.23;16.20;;;;;;;24.67;66.88;99263.91;4952365;28;20101;-24
2021/08/29 02:57:00;;;;;;;18.98;14.65;;;;;;;24.77;67.45;99276.34;4968705;28;20073;-24
2021/08/29 02:59:26;;;;;;;22.92;14.88;;;;;;;24.83;67.11;99277.75;4968864;28;20039;-24
2021/08/29 03:01:52;;;;;;;19.42;15.75;;;;;;;24.44;68.76;99268.06;4970018;28;20121;-24
2021/08/29 03:04:17;;;;;;;18.75;15.15;;;;;;;24.22;69.83;99250.09;4969956;28;20811;-24
2021/08/29 03:06:43;;;;;;;17.88;15.90;;;;;;;24.58;69.12;99270.53;4969011;28;20031;-24
2021/08/29 03:09:09;;;;;;;18.58;15.73;;;;;;;24.50;68.83;99274.13;4969708;28;20022;-23
2021/08/29 03:11:34;;;;;;;18.25;14.52;;;;;;;24.41;69.09;99257.81;4970057;28;20093;-23
2021/08/29 03:14:00;;;;;;;21.42;16.40;;;;;;;24.57;68.11;99266.25;4969801;28;20403;-24
2021/08/29 03:16:25;;;;;;;17.98;14.75;;;;;;;24.64;67.93;99258.31;4968318;28;20062;-23
2021/08/29 03:18:51;;;;;;;27.08;16.35;;;;;;;24.40;69.15;99267.91;4969631;28;20027;-24
2021/08/29 03:21:16;;;;;;;20.23;16.40;;;;;;;24.01;69.67;99250.06;4968150;28;20035;-24
2021/08/29 03:23:42;;;;;;;20.85;15.50;;;;;;;24.10;69.99;99269.06;4969528;28;20043;-24
2021/08/29 03:26:07;;;;;;;21.33;16.75;;;;;;;24.14;69.91;99278.19;4968959;28;20206;-23
2021/08/29 03:28:33;;;;;;;19.38;15.60;;;;;;;24.60;68.50;99274.56;4969444;28;20406;-24
2021/08/29 03:30:59;;;;;;;17.65;14.00;;;;;;;24.72;67.61;99271.06;4969272;28;20035;-24
2021/08/29 03:33:25;;;;;;;19.45;15.98;;;;;;;24.70;68.29;99270.63;4968112;28;20034;-24
2021/08/29 03:35:51;;;;;;;18.77;16.13;;;;;;;24.52;68.33;99258.25;4969218;28;20069;-24
2021/08/29 03:38:17;;;;;;;24.58;17.02;;;;;;;24.18;69.53;99260.84;4951796;28;20034;-23
2021/08/29 03:40:42;;;;;;;20.38;14.18;;;;;;;24.47;68.06;99272.84;4952333;28;20138;-24
2021/08/29 03:43:08;;;;;;;18.45;15.30;;;;;;;24.45;69.21;99281.34;4936352;28;20041;-24
2021/08/29 03:45:34;;;;;;;19.25;15.48;;;;;;;24.21;69.87;99253.94;4969210;28;20037;-24
2021/08/29 03:47:59;;;;;;;21.20;18.58;;;;;;;24.15;70.97;99287.94;4968973;28;20031;-24
2021/08/29 03:50:25;;;;;;;23.45;17.85;;;;;;;23.90;72.38;99297.81;4969239;28;20055;-24
2021/08/29 03:52:50;;;;;;;21.70;16.73;;;;;;;23.75;73.00;99297.22;4968884;28;20030;-24
2021/08/29 03:55:16;;;;;;;19.42;15.68;;;;;;;23.83;72.56;99306.50;4968002;28;20078;-24
2021/08/29 03:57:41;;;;;;;22.77;16.83;;;;;;;24.09;71.06;99300.97;4968981;28;20663;-24
2021/08/29 04:00:07;;;;;;;19.73;17.60;;;;;;;23.92;71.98;99290.91;4967560;28;20118;-24
2021/08/29 04:02:33;;;;;;;22.08;18.05;;;;;;;23.80;71.60;99271.75;4968983;28;20414;-23
2021/08/29 04:04:59;;;;;;;22.92;18.63;;;;;;;24.10;71.45;99301.75;4969331;28;20475;-24
2021/08/29 04:07:24;;;;;;;21.15;18.20;;;;;;;23.92;72.41;99298.28;4969058;28;20062;-24
2021/08/29 04:09:50;;;;;;;21.58;18.92;;;;;;;23.75;73.38;99304.59;4967680;28;20046;-24
2021/08/29 04:12:15;;;;;;;25.13;21.50;;;;;;;23.44;74.91;99302.91;4968628;28;20034;-24
2021/08/29 04:14:41;;;;;;;24.85;22.00;;;;;;;23.04;76.04;99284.06;4967736;28;20046;-24
2021/08/29 04:17:06;;;;;;;24.67;20.17;;;;;;;23.71;73.53;99306.34;4969132;28;20039;-23
2021/08/29 04:19:31;;;;;;;24.75;20.73;;;;;;;23.62;73.93;99315.34;4971941;28;20039;-24
2021/08/29 04:21:57;;;;;;;23.70;20.05;;;;;;;23.73;73.08;99309.56;4972680;28;20483;-23
2021/08/29 04:24:23;;;;;;;22.13;19.70;;;;;;;23.43;74.13;99304.00;4972298;28;20042;-24
2021/08/29 04:26:48;;;;;;;28.52;21.08;;;;;;;23.74;73.03;99294.81;4972380;28;20054;-23
2021/08/29 04:29:14;;;;;;;24.17;20.75;;;;;;;23.80;73.54;99312.59;4972841;28;20031;-24
2021/08/29 04:31:40;;;;;;;26.50;21.25;;;;;;;23.80;73.60;99310.69;4972622;28;20035;-24
2021/08/29 04:34:07;;;;;;;23.20;20.45;;;;;;;23.73;73.61;99313.06;4955164;28;20031;-24
2021/08/29 04:36:34;;;;;;;25.70;21.55;;;;;;;23.77;73.34;99318.69;4972514;28;20069;-24
2021/08/29 04:39:00;;;;;;;24.83;21.20;;;;;;;23.45;74.66;99309.94;4971262;28;20034;-24
2021/08/29 04:41:25;;;;;;;25.52;21.23;;;;;;;23.81;72.86;99315.00;4972480;28;20035;-24
2021/08/29 04:43:50;;;;;;;23.55;20.42;;;;;;;23.70;73.19;99310.19;4972557;28;20039;-24
2021/08/29 04:46:16;;;;;;;23.85;21.20;;;;;;;23.79;73.00;99316.44;4972064;28;20030;-24
2021/08/29 04:48:41;;;;;;;26.63;21.30;;;;;;;23.66;73.12;99310.84;4972424;28;20027;-23
2021/08/29 04:51:07;;;;;;;26.13;21.00;;;;;;;23.74;73.14;99313.84;4972234;28;20038;-24
2021/08/29 04:53:32;;;;;;;25.67;21.38;;;;;;;23.53;73.55;99295.50;4971099;28;20170;-23
2021/08/29 04:55:58;;;;;;;24.30;21.08;;;;;;;23.61;73.22;99291.97;4972549;28;20415;-23
2021/08/29 04:58:23;;;;;;;26.73;21.73;;;;;;;23.94;71.92;99298.78;4972340;28;20033;-24
2021/08/29 05:00:49;;;;;;;26.85;20.92;;;;;;;24.27;70.99;99301.66;4971235;28;20122;-23
2021/08/29 05:03:14;;;;;;;26.25;20.88;;;;;;;24.49;69.13;99292.38;4972088;28;20034;-24
2021/08/29 05:05:40;;;;;;;23.55;20.95;;;;;;;24.29;69.67;99283.03;4971777;28;20037;-23
2021/08/29 05:08:06;;;;;;;25.10;21.75;;;;;;;24.46;69.44;99293.84;4971799;28;20037;-24
2021/08/29 05:10:31;;;;;;;27.45;22.15;;;;;;;24.46;69.97;99290.34;4971845;28;20035;-24
2021/08/29 05:12:57;;;;;;;25.98;21.52;;;;;;;24.33;70.60;99303.06;4971895;28;20034;-24
2021/08/29 05:15:22;;;;;;;24.75;21.55;;;;;;;24.16;70.58;99295.78;4971821;28;20406;-24
2021/08/29 05:17:47;;;;;;;23.80;20.15;;;;;;;24.22;70.62;99288.22;4971727;28;20061;-24
2021/08/29 05:20:13;;;;;;;24.30;20.80;;;;;;;24.14;70.23;99297.25;4971333;28;20062;-24
2021/08/29 05:22:38;;;;;;;25.38;21.70;;;;;;;23.96;71.92;99297.31;4971677;28;20039;-24
2021/08/29 05:25:04;;;;;;;26.15;21.88;;;;;;;23.83;71.79;99287.44;4971516;28;20031;-24
2021/08/29 05:27:30;;;;;;;28.20;22.58;;;;;;;24.02;71.62;99296.00;4970181;28;20074;-24
2021/08/29 05:29:55;;;;;;;27.80;22.08;;;;;;;23.93;72.10;99283.56;4970679;28;20034;-24
2021/08/29 05:32:21;;;;;;;26.05;23.00;;;;;;;23.98;72.16;99294.28;4971819;28;20035;-24
2021/08/29 05:34:46;;;;;;;26.50;21.63;;;;;;;24.15;70.99;99282.47;4971658;28;20030;-24
2021/08/29 05:37:12;;;;;;;25.83;22.08;;;;;;;24.25;70.76;99290.28;4971650;28;20043;-24
2021/08/29 05:39:37;;;;;;;27.35;23.52;;;;;;;24.30;71.03;99283.88;4970381;28;20023;-24
2021/08/29 05:42:03;;;;;;;26.35;22.20;;;;;;;24.26;70.81;99291.88;4971397;28;20113;-24
2021/08/29 05:44:28;;;;;;;29.02;22.90;;;;;;;24.16;70.25;99289.53;4970075;28;20029;-24
2021/08/29 05:46:54;;;;;;;25.17;20.80;;;;;;;24.09;70.52;99294.69;4971152;28;20034;-24
2021/08/29 05:49:19;;;;;;;25.80;20.75;;;;;;;24.36;69.65;99299.69;4971290;28;20545;-24
2021/08/29 05:51:45;;;;;;;23.85;20.08;;;;;;;24.50;68.70;99287.75;4971226;28;20035;-24
2021/08/29 05:54:10;;;;;;;24.85;19.98;;;;;;;24.82;67.20;99288.97;4971429;28;20035;-24
2021/08/29 05:56:36;;;;;;;27.02;20.45;;;;;;;25.09;66.34;99282.19;4971311;28;20034;-24
2021/08/29 05:59:01;;;;;;;26.40;20.65;;;;;;;24.94;66.41;99278.13;4970980;28;20042;-24
2021/08/29 06:01:27;;;;;;;24.75;20.15;;;;;;;25.14;65.44;99284.69;4971154;28;20045;-24
2021/08/29 06:03:52;;;;;;;25.80;19.63;;;;;;;25.40;64.58;99287.19;4971135;28;20101;-24
2021/08/29 06:06:17;;;;;;;22.08;18.88;;;;;;;25.10;64.85;99282.97;4970929;28;20101;-24
2021/08/29 06:08:43;;;;;;;23.77;18.75;;;;;;;25.15;64.87;99289.03;4971125;28;20406;-24
2021/08/29 06:11:09;;;;;;;25.80;20.35;;;;;;;25.13;65.04;99294.03;4970891;28;20035;-24
2021/08/29 06:13:34;;;;;;;24.35;19.05;;;;;;;25.06;66.46;99296.47;4970772;28;20034;-24
2021/08/29 06:16:00;;;;;;;25.45;19.30;;;;;;;25.03;65.66;99299.88;4970626;28;20041;-24
2021/08/29 06:18:25;;;;;;;26.55;20.23;;;;;;;24.97;65.12;99307.47;4987724;28;20422;-24
2021/08/29 06:20:51;;;;;;;25.08;20.30;;;;;;;24.80;63.93;99308.38;4990027;28;20048;-24
2021/08/29 06:23:16;;;;;;;25.38;19.35;;;;;;;24.79;64.48;99295.91;4989656;28;20042;-24
2021/08/29 06:25:42;;;;;;;27.17;20.20;;;;;;;24.60;66.05;99293.63;4988528;28;20249;-24
2021/08/29 06:28:07;;;;;;;26.73;20.85;;;;;;;24.66;65.87;99302.41;4989400;28;20457;-24
2021/08/29 06:30:33;;;;;;;26.50;20.50;;;;;;;24.79;66.45;99309.53;4989802;28;20042;-24
2021/08/29 06:32:58;;;;;;;23.70;20.20;;;;;;;24.61;66.35;99302.59;4989761;28;20511;-24
2021/08/29 06:35:24;;;;;;;26.10;20.60;;;;;;;24.43;67.41;99278.16;4988558;28;20896;-24
2021/08/29 06:37:49;;;;;;;25.98;21.30;;;;;;;25.12;66.37;99303.31;4989816;28;20033;-24
2021/08/29 06:40:15;;;;;;;25.83;20.80;;;;;;;25.14;65.88;99305.72;4989790;28;20030;-24
2021/08/29 06:42:41;;;;;;;24.48;20.58;;;;;;;24.97;66.49;99301.22;4988501;28;20089;-24
2021/08/29 06:45:10;;;;;;;25.77;20.45;;;;;;;24.93;66.40;99283.91;4989619;28;20034;-24
2021/08/29 06:47:36;;;;;;;23.55;19.77;;;;;;;25.30;65.85;99300.47;4989836;28;20171;-24
2021/08/29 06:50:02;;;;;;;22.95;19.30;;;;;;;25.24;64.93;99297.94;4989429;28;20834;-24
2021/08/29 06:52:28;;;;;;;24.40;19.00;;;;;;;25.13;65.18;99301.38;4988389;28;20073;-24
2021/08/29 06:54:53;;;;;;;20.63;18.33;;;;;;;25.24;65.65;99294.44;4989363;28;20033;-24
2021/08/29 06:57:19;;;;;;;21.65;17.63;;;;;;;25.35;64.50;99287.41;4989359;28;20520;-24
2021/08/29 06:59:44;;;;;;;21.23;18.27;;;;;;;25.32;64.54;99290.03;4988106;28;20117;-24
2021/08/29 07:02:09;;;;;;;22.48;18.13;;;;;;;25.50;63.77;99294.16;4989315;28;20034;-24
2021/08/29 07:04:35;;;;;;;21.67;17.92;;;;;;;25.58;63.88;99293.28;4986715;28;20034;-24
2021/08/29 07:07:00;;;;;;;21.75;18.33;;;;;;;25.50;64.31;99296.91;4979377;28;20457;-24
2021/08/29 07:09:26;;;;;;;21.15;16.83;;;;;;;25.21;64.87;99290.44;4977505;28;20030;-24
2021/08/29 07:11:51;;;;;;;24.85;19.15;;;;;;;25.40;65.29;99303.56;4978239;28;20030;-24
2021/08/29 07:14:17;;;;;;;22.30;18.52;;;;;;;25.40;65.98;99291.88;4978534;28;20089;-24
2021/08/29 07:16:42;;;;;;;22.67;17.65;;;;;;;25.56;64.19;99292.00;4989075;28;20489;-24
2021/08/29 07:19:08;;;;;;;21.38;17.48;;;;;;;25.57;64.99;99286.22;4989085;28;20037;-24
2021/08/29 07:21:33;;;;;;;20.30;16.65;;;;;;;25.47;64.33;99286.63;4989713;28;20034;-24
2021/08/29 07:23:59;;;;;;;22.92;16.45;;;;;;;25.61;64.60;99283.59;4989072;28;20049;-24
2021/08/29 07:26:24;;;;;;;20.33;16.05;;;;;;;25.92;62.72;99280.34;4988778;28;20054;-24
2021/08/29 07:28:50;;;;;;;22.17;17.80;;;;;;;25.78;65.70;99279.88;4989022;28;20034;-24
2021/08/29 07:31:15;;;;;;;19.85;17.13;;;;;;;26.16;62.75;99284.25;4987562;28;20088;-23
2021/08/29 07:33:41;;;;;;;22.80;17.30;;;;;;;26.17;62.30;99280.34;4988594;28;20104;-24
2021/08/29 07:36:06;;;;;;;24.30;19.00;;;;;;;26.22;61.87;99277.41;4988571;28;20041;-24
2021/08/29 07:38:32;;;;;;;22.50;18.10;;;;;;;26.40;62.16;99281.50;4988899;28;20030;-24
2021/08/29 07:40:58;;;;;;;26.55;21.27;;;;;;;26.58;61.35;99283.97;4988411;28;20041;-24
2021/08/29 07:43:23;;;;;;;28.15;19.88;;;;;;;26.73;60.96;99271.53;4988803;28;20526;-24
2021/08/29 07:45:48;;;;;;;27.70;20.98;;;;;;;26.96;60.75;99258.13;4988581;28;20030;-24
2021/08/29 07:48:14;;;;;;;24.45;19.10;;;;;;;27.27;58.84;99264.84;4988275;28;20030;-24
2021/08/29 07:50:39;;;;;;;25.40;19.02;;;;;;;27.36;58.77;99273.69;4988764;28;20038;-24
2021/08/29 07:53:05;;;;;;;26.00;20.40;;;;;;;27.60;59.62;99273.56;4987364;28;20564;-25
2021/08/29 07:55:30;;;;;;;28.20;22.52;;;;;;;27.91;58.06;99266.50;4976031;28;20038;-24
2021/08/29 07:57:56;;;;;;;30.65;22.63;;;;;;;27.79;58.18;99272.06;4983122;28;20038;-24
2021/08/29 08:00:21;;;;;;;29.63;22.02;;;;;;;28.07;57.46;99271.16;4988255;28;20041;-24
2021/08/29 08:02:47;;;;;;;27.50;22.83;;;;;;;27.73;57.72;99248.81;4988417;28;20410;-24
2021/08/29 08:05:12;;;;;;;30.10;23.58;;;;;;;27.51;59.52;99250.22;4988523;28;20042;-23
2021/08/29 08:07:38;;;;;;;29.25;22.98;;;;;;;27.10;60.13;99231.16;4987370;28;20038;-24
2021/08/29 08:10:04;;;;;;;29.92;23.73;;;;;;;26.92;59.71;99255.28;4988307;28;20034;-24
2021/08/29 08:12:30;;;;;;;32.72;24.35;;;;;;;26.40;61.50;99248.69;4988430;28;20022;-24
2021/08/29 08:14:55;;;;;;;31.55;24.85;;;;;;;26.55;61.39;99252.63;4988441;28;20042;-23
2021/08/29 08:17:21;;;;;;;32.95;26.27;;;;;;;26.55;62.20;99252.63;4988263;28;20411;-24
2021/08/29 08:19:46;;;;;;;34.97;25.38;;;;;;;26.85;60.77;99233.22;4988448;28;20038;-24
2021/08/29 08:22:11;;;;;;;31.08;26.77;;;;;;;27.11;60.49;99254.63;4988187;28;20026;-24
2021/08/29 08:24:37;;;;;;;33.08;25.88;;;;;;;27.18;59.30;99252.09;4988026;28;20046;-24
2021/08/29 08:27:03;;;;;;;33.65;26.95;;;;;;;27.05;60.09;99248.63;4988093;28;20058;-24
2021/08/29 08:29:28;;;;;;;38.58;27.83;;;;;;;27.55;58.07;99249.16;4988472;28;20041;-33
2021/08/29 08:31:53;;;;;;;34.38;27.08;;;;;;;28.18;55.61;99242.06;4988548;28;20030;-24
2021/08/29 08:34:19;;;;;;;35.38;27.58;;;;;;;28.51;54.99;99236.16;4988173;28;20053;-23
2021/08/29 08:36:44;;;;;;;35.65;27.77;;;;;;;28.61;53.90;99229.31;4988235;28;20034;-24
2021/08/29 08:39:10;;;;;;;34.70;27.70;;;;;;;28.83;54.31;99234.06;4988125;28;20038;-24
2021/08/29 08:41:35;;;;;;;34.13;27.52;;;;;;;28.54;54.19;99226.41;4988135;28;20105;-24
2021/08/29 08:44:01;;;;;;;32.33;26.63;;;;;;;28.85;53.53;99223.53;4987973;28;20084;-23
2021/08/29 08:46:26;;;;;;;33.58;27.23;;;;;;;28.46;53.60;99233.66;4988076;28;20457;-24
2021/08/29 08:48:52;;;;;;;35.05;27.52;;;;;;;28.30;55.09;99220.03;4986695;28;20030;-23
2021/08/29 08:51:23;;;;;;;31.33;25.75;;;;;;;28.14;54.38;99233.75;4987924;28;20030;-24
2021/08/29 08:53:49;;;;;;;36.60;28.00;;;;;;;28.39;53.65;99231.56;4988006;28;20057;-24
2021/08/29 08:56:16;;;;;;;38.17;28.30;;;;;;;28.80;53.25;99218.31;4970609;28;20037;-24
2021/08/29 08:58:41;;;;;;;35.80;28.07;;;;;;;29.09;52.30;99205.13;4988195;28;20042;-24
2021/08/29 09:01:08;;;;;;;35.65;27.65;;;;;;;29.38;53.50;99228.44;4986796;28;20038;-24
2021/08/29 09:03:36;;;;;;;35.65;26.80;;;;;;;29.00;55.21;99221.84;4988128;28;20092;-23
2021/08/29 09:06:02;;;;;;;35.28;26.73;;;;;;;29.21;54.99;99223.44;4990265;28;20034;-24
2021/08/29 09:08:28;;;;;;;36.20;28.70;;;;;;;29.50;50.45;99230.19;4982155;28;20042;-24
2021/08/29 09:10:53;;;;;;;35.00;28.25;;;;;;;29.86;51.36;99216.28;4976109;28;20105;-24
2021/08/29 09:13:19;;;;;;;35.15;28.98;;;;;;;29.87;50.94;99210.41;4976546;28;20038;-24
2021/08/29 09:15:44;;;;;;;35.75;28.45;;;;;;;29.69;50.32;99212.06;4970614;28;20081;-24
2021/08/29 09:18:13;;;;;;;34.85;27.58;;;;;;;29.72;49.85;99208.63;4970503;28;20034;-24
2021/08/29 09:20:39;;;;;;;38.15;28.30;;;;;;;29.84;50.19;99208.41;4970782;28;20542;-24
2021/08/29 09:23:09;;;;;;;32.97;28.70;;;;;;;29.33;51.15;99200.50;4971682;28;20093;-24
2021/08/29 09:25:40;;;;;;;32.80;27.50;;;;;;;29.67;51.14;99200.63;4977786;28;20037;-24
2021/08/29 09:28:09;;;;;;;36.65;29.08;;;;;;;29.88;49.31;99208.47;4979874;28;20132;-24
2021/08/29 09:30:35;;;;;;;36.17;29.15;;;;;;;30.05;50.61;99203.22;4979871;28;20041;-24
2021/08/29 09:33:02;;;;;;;35.50;29.75;;;;;;;30.47;49.19;99203.41;4981514;28;20034;-24
2021/08/29 09:35:31;;;;;;;34.42;28.35;;;;;;;30.62;49.17;99207.91;4981241;28;20033;-24
2021/08/29 09:37:57;;;;;;;34.50;28.45;;;;;;;31.04;48.13;99195.84;4979793;28;20093;-23
2021/08/29 09:40:27;;;;;;;39.80;30.38;;;;;;;30.76;47.18;99182.53;4980861;28;20030;-23
2021/08/29 09:42:54;;;;;;;34.53;28.85;;;;;;;30.18;49.01;99192.00;4981662;28;20035;-24
2021/08/29 09:45:20;;;;;;;36.20;31.37;;;;;;;30.12;49.13;99185.22;4979921;28;20034;-23
2021/08/29 09:47:45;;;;;;;38.60;29.90;;;;;;;30.52;48.47;99197.56;4979392;28;20092;-24
2021/08/29 09:50:12;;;;;;;33.92;28.08;;;;;;;30.43;46.88;99190.41;4986948;28;20038;-24
2021/08/29 09:52:38;;;;;;;38.38;30.70;;;;;;;30.90;47.31;99179.16;4973635;28;20034;-24
2021/08/29 09:55:04;;;;;;;37.03;29.52;;;;;;;31.07;45.48;99189.56;4990778;28;20042;-24
2021/08/29 09:57:29;;;;;;;36.63;31.10;;;;;;;30.76;47.50;99188.03;4990660;28;20037;-24
2021/08/29 09:59:54;;;;;;;38.85;29.02;;;;;;;29.74;50.37;99184.31;4973330;28;20031;-24
2021/08/29 10:02:27;;;;;;;33.35;29.02;;;;;;;30.16;48.44;99186.88;4972857;28;20042;-24
2021/08/29 10:05:31;;;;;;;36.00;30.52;;;;;;;30.74;46.69;99176.59;4989281;28;20081;-24
2021/08/29 10:08:08;;;;;;;36.63;29.85;;;;;;;31.17;45.61;99177.84;4930055;29;20046;-24
2021/08/29 10:10:36;;;;;;;;;;;;;;;30.73;47.27;99186.03;4930844;29;20044;-24
2021/08/29 10:13:01;;;;;;;;;;;;;;;30.29;47.96;99184.69;4987171;28;19917;-24
2021/08/29 10:15:26;;;;;;;37.25;29.98;;;;;;;30.63;47.42;99190.25;4988932;28;20312;-24
2021/08/29 10:17:54;;;;;;;33.17;28.20;;;;;;;30.70;45.25;99178.53;4989991;28;20041;-24
2021/08/29 10:20:24;;;;;;;;;;;;;;;31.29;46.33;99174.03;4989307;28;20030;-24
2021/08/29 10:22:50;;;;;;;36.45;29.13;;;;;;;31.46;44.19;99182.84;4990500;28;20737;-24
2021/08/29 10:25:17;;;;;;;34.20;27.85;;;;;;;31.37;42.44;99174.88;4972332;28;20109;-23
2021/08/29 10:27:44;;;;;;;;;;;;;;;31.30;45.00;99163.78;4990527;28;20055;-24
2021/08/29 10:30:10;;;;;;;;;;;;;;;31.48;43.92;99170.25;4990619;28;19920;-24
2021/08/29 10:32:39;;;;;;;34.30;30.17;;;;;;;31.77;44.24;99164.97;4990062;28;19914;-24
2021/08/29 10:35:07;;;;;;;34.88;29.58;;;;;;;31.59;44.88;99160.13;4989391;28;20092;-24
2021/08/29 10:37:35;;;;;;;33.50;29.60;;;;;;;31.38;46.37;99159.94;4973033;28;20096;-24
2021/08/29 10:40:01;;;;;;;32.97;28.33;;;;;;;31.54;43.15;99154.19;4989760;28;20070;-24
2021/08/29 10:42:27;;;;;;;33.95;30.25;;;;;;;32.40;42.63;99146.41;4990193;28;20026;-24
2021/08/29 10:44:52;;;;;;;34.20;27.17;;;;;;;32.94;39.58;99149.34;4988447;28;20034;-24
2021/08/29 10:47:17;;;;;;;35.78;29.33;;;;;;;33.21;40.41;99147.00;4988084;28;20037;-24
2021/08/29 10:49:43;;;;;;;34.28;29.88;;;;;;;33.32;40.75;99147.00;4988647;28;20030;-23
2021/08/29 10:52:08;;;;;;;32.22;26.95;;;;;;;33.01;40.11;99154.84;4989534;28;20097;-24
2021/08/29 10:54:37;;;;;;;33.58;27.17;;;;;;;32.03;40.77;99134.41;4988548;28;20038;-25
2021/08/29 10:57:32;;;;;;;30.98;27.60;;;;;;;32.09;41.42;99142.34;4988397;28;20038;-24
2021/08/29 11:00:11;;;;;;;32.63;27.25;;;;;;;32.67;40.60;99133.09;4989674;28;20030;-24
2021/08/29 11:02:38;;;;;;;33.70;27.15;;;;;;;32.98;39.43;99137.09;4989715;28;20069;-24
2021/08/29 11:05:04;;;;;;;34.42;27.50;;;;;;;32.21;41.66;99144.75;4989165;28;20391;-24
2021/08/29 11:07:40;;;;;;;32.08;26.25;;;;;;;31.92;40.37;99125.28;4989399;28;20073;-24
2021/08/29 11:10:07;;;;;;;33.45;27.52;;;;;;;32.08;41.96;99132.47;4989470;28;20363;-24
2021/08/29 11:12:33;;;;;;;29.10;26.00;;;;;;;32.44;41.05;99136.94;4989692;28;20857;-23
2021/08/29 11:14:59;;;;;;;31.58;26.15;;;;;;;32.42;41.22;99135.75;4989344;28;20026;-24